sensor_id;sensor_type;location;lat;lon;timestamp;pressure;altitude;pressure_sealevel;temperature;humidity
14800;BME280;7491;57.750;11.970;2023-03-11T00:02:13;76487.81;;;-142.11;100.00
14800;BME280;7491;57.750;11.970;2023-03-11T00:04:39;76493.91;;;-142.11;100.00
14800;BME280;7491;57.750;11.970;2023-03-11T00:07:08;76483.72;;;-142.11;100.00
14800;BME280;7491;57.750;11.970;2023-03-11T00:09:36;76479.66;;;-142.11;100.00
14800;BME280;7491;57.750;11.970;2023-03-11T00:12:05;76483.72;;;-142.11;100.00
14800;BME280;7491;57.750;11.970;2023-03-11T00:14:32;76477.63;;;-142.11;100.00
14800;BME280;7491;57.750;11.970;2023-03-11T00:16:58;76469.44;;;-142.11;100.00
14800;BME280;7491;57.750;11.970;2023-03-11T00:19:25;76471.50;;;-142.11;100.00
14800;BME280;7491;57.750;11.970;2023-03-11T00:21:52;76487.81;;;-142.11;100.00
14800;BME280;7491;57.750;11.970;2023-03-11T00:24:19;76473.53;;;-142.11;100.00
14800;BME280;7491;57.750;11.970;2023-03-11T00:26:46;76489.84;;;-142.11;100.00
14800;BME280;7491;57.750;11.970;2023-03-11T00:29:14;76475.56;;;-142.11;100.00
14800;BME280;7491;57.750;11.970;2023-03-11T00:31:41;76481.69;;;-142.11;100.00
14800;BME280;7491;57.750;11.970;2023-03-11T00:34:08;76481.69;;;-142.11;100.00
14800;BME280;7491;57.750;11.970;2023-03-11T00:36:34;76465.38;;;-142.11;100.00
14800;BME280;7491;57.750;11.970;2023-03-11T00:39:03;76487.81;;;-142.11;100.00
14800;BME280;7491;57.750;11.970;2023-03-11T00:41:31;76493.91;;;-142.11;100.00
14800;BME280;7491;57.750;11.970;2023-03-11T00:43:57;76479.66;;;-142.11;100.00
14800;BME280;7491;57.750;11.970;2023-03-11T00:46:26;76485.75;;;-142.11;100.00
14800;BME280;7491;57.750;11.970;2023-03-11T00:48:55;76498.00;;;-142.11;100.00
14800;BME280;7491;57.750;11.970;2023-03-11T00:51:22;76481.69;;;-142.11;100.00
14800;BME280;7491;57.750;11.970;2023-03-11T00:53:49;76489.84;;;-142.11;100.00
14800;BME280;7491;57.750;11.970;2023-03-11T00:56:15;76495.97;;;-142.11;100.00
14800;BME280;7491;57.750;11.970;2023-03-11T00:58:43;76487.81;;;-142.11;100.00
14800;BME280;7491;57.750;11.970;2023-03-11T01:01:12;76483.72;;;-142.11;100.00
14800;BME280;7491;57.750;11.970;2023-03-11T01:03:41;76498.00;;;-142.11;100.00
14800;BME280;7491;57.750;11.970;2023-03-11T01:06:08;76498.00;;;-142.11;100.00
14800;BME280;7491;57.750;11.970;2023-03-11T01:08:35;76498.00;;;-142.11;100.00
14800;BME280;7491;57.750;11.970;2023-03-11T01:11:03;76498.00;;;-142.11;100.00
14800;BME280;7491;57.750;11.970;2023-03-11T01:13:32;76516.34;;;-142.11;100.00
14800;BME280;7491;57.750;11.970;2023-03-11T01:15:59;76510.22;;;-142.11;100.00
14800;BME280;7491;57.750;11.970;2023-03-11T01:18:26;76524.50;;;-142.11;100.00
14800;BME280;7491;57.750;11.970;2023-03-11T01:20:55;76528.56;;;-142.11;100.00
14800;BME280;7491;57.750;11.970;2023-03-11T01:23:22;76526.53;;;-142.11;100.00
14800;BME280;7491;57.750;11.970;2023-03-11T01:25:48;76524.50;;;-142.11;100.00
14800;BME280;7491;57.750;11.970;2023-03-11T01:28:15;76530.63;;;-142.11;100.00
14800;BME280;7491;57.750;11.970;2023-03-11T01:30:42;76534.69;;;-142.11;100.00
14800;BME280;7491;57.750;11.970;2023-03-11T01:33:13;76538.78;;;-142.11;100.00
14800;BME280;7491;57.750;11.970;2023-03-11T01:35:40;76538.78;;;-142.11;100.00
14800;BME280;7491;57.750;11.970;2023-03-11T01:38:10;76538.78;;;-142.11;100.00
14800;BME280;7491;57.750;11.970;2023-03-11T01:40:39;76551.00;;;-142.11;100.00
14800;BME280;7491;57.750;11.970;2023-03-11T01:46:18;76563.25;;;-142.11;100.00
14800;BME280;7491;57.750;11.970;2023-03-11T01:48:47;76563.25;;;-142.11;100.00
14800;BME280;7491;57.750;11.970;2023-03-11T01:51:16;76579.53;;;-142.11;100.00
14800;BME280;7491;57.750;11.970;2023-03-11T01:53:46;76585.66;;;-142.11;100.00
14800;BME280;7491;57.750;11.970;2023-03-11T01:56:13;76581.59;;;-142.11;100.00
14800;BME280;7491;57.750;11.970;2023-03-11T01:58:42;76581.59;;;-142.11;100.00
14800;BME280;7491;57.750;11.970;2023-03-11T02:01:13;76587.69;;;-142.11;100.00
14800;BME280;7491;57.750;11.970;2023-03-11T02:03:40;76597.91;;;-142.11;100.00
14800;BME280;7491;57.750;11.970;2023-03-11T02:06:10;76597.91;;;-142.11;100.00
14800;BME280;7491;57.750;11.970;2023-03-11T02:08:38;76616.25;;;-142.11;100.00
14800;BME280;7491;57.750;11.970;2023-03-11T02:11:10;76595.84;;;-142.11;100.00
14800;BME280;7491;57.750;11.970;2023-03-11T02:13:38;76593.81;;;-142.11;100.00
14800;BME280;7491;57.750;11.970;2023-03-11T02:16:06;76597.91;;;-142.11;100.00
14800;BME280;7491;57.750;11.970;2023-03-11T02:18:33;76595.84;;;-142.11;100.00
14800;BME280;7491;57.750;11.970;2023-03-11T02:21:05;76589.75;;;-142.11;100.00
14800;BME280;7491;57.750;11.970;2023-03-11T02:23:39;76589.75;;;-142.11;100.00
14800;BME280;7491;57.750;11.970;2023-03-11T02:26:13;76587.69;;;-142.11;100.00
14800;BME280;7491;57.750;11.970;2023-03-11T02:28:42;76593.81;;;-142.11;100.00
14800;BME280;7491;57.750;11.970;2023-03-11T02:31:10;76587.69;;;-142.11;100.00
14800;BME280;7491;57.750;11.970;2023-03-11T02:33:38;76595.84;;;-142.11;100.00
14800;BME280;7491;57.750;11.970;2023-03-11T02:36:05;76585.66;;;-142.11;100.00
14800;BME280;7491;57.750;11.970;2023-03-11T02:38:32;76595.84;;;-142.11;100.00
14800;BME280;7491;57.750;11.970;2023-03-11T02:41:01;76585.66;;;-142.11;100.00
14800;BME280;7491;57.750;11.970;2023-03-11T02:43:33;76589.75;;;-142.11;100.00
14800;BME280;7491;57.750;11.970;2023-03-11T02:46:03;76581.59;;;-142.11;100.00
14800;BME280;7491;57.750;11.970;2023-03-11T02:48:30;76581.59;;;-142.11;100.00
14800;BME280;7491;57.750;11.970;2023-03-11T02:50:57;76575.47;;;-142.11;100.00
14800;BME280;7491;57.750;11.970;2023-03-11T02:53:27;76585.66;;;-142.11;100.00
14800;BME280;7491;57.750;11.970;2023-03-11T02:55:55;76608.09;;;-142.11;100.00
14800;BME280;7491;57.750;11.970;2023-03-11T02:58:22;76591.78;;;-142.11;100.00
14800;BME280;7491;57.750;11.970;2023-03-11T03:00:49;76587.69;;;-142.11;100.00
14800;BME280;7491;57.750;11.970;2023-03-11T03:03:17;76587.69;;;-142.11;100.00
14800;BME280;7491;57.750;11.970;2023-03-11T03:05:43;76589.75;;;-142.11;100.00
14800;BME280;7491;57.750;11.970;2023-03-11T03:08:10;76597.91;;;-142.11;100.00
14800;BME280;7491;57.750;11.970;2023-03-11T03:10:37;76604.00;;;-142.11;100.00
14800;BME280;7491;57.750;11.970;2023-03-11T03:13:04;76595.84;;;-142.11;100.00
14800;BME280;7491;57.750;11.970;2023-03-11T03:15:30;76601.97;;;-142.11;100.00
14800;BME280;7491;57.750;11.970;2023-03-11T03:17:57;76606.06;;;-142.11;100.00
14800;BME280;7491;57.750;11.970;2023-03-11T03:20:26;76608.09;;;-142.11;100.00
14800;BME280;7491;57.750;11.970;2023-03-11T03:22:53;76597.91;;;-142.11;100.00
14800;BME280;7491;57.750;11.970;2023-03-11T03:25:20;76595.84;;;-142.11;100.00
14800;BME280;7491;57.750;11.970;2023-03-11T03:27:47;76595.84;;;-142.11;100.00
14800;BME280;7491;57.750;11.970;2023-03-11T03:30:14;76595.84;;;-142.11;100.00
14800;BME280;7491;57.750;11.970;2023-03-11T03:32:41;76601.97;;;-142.11;100.00
14800;BME280;7491;57.750;11.970;2023-03-11T03:35:09;76604.00;;;-142.11;100.00
14800;BME280;7491;57.750;11.970;2023-03-11T03:37:37;76604.00;;;-142.11;100.00
14800;BME280;7491;57.750;11.970;2023-03-11T03:40:06;76612.16;;;-142.11;100.00
14800;BME280;7491;57.750;11.970;2023-03-11T03:42:34;76616.25;;;-142.11;100.00
14800;BME280;7491;57.750;11.970;2023-03-11T03:45:01;76628.47;;;-142.11;100.00
14800;BME280;7491;57.750;11.970;2023-03-11T03:47:28;76636.63;;;-142.11;100.00
14800;BME280;7491;57.750;11.970;2023-03-11T03:49:54;76665.19;;;-142.11;100.00
14800;BME280;7491;57.750;11.970;2023-03-11T03:52:21;76677.41;;;-142.11;100.00
14800;BME280;7491;57.750;11.970;2023-03-11T03:54:49;76691.69;;;-142.11;100.00
14800;BME280;7491;57.750;11.970;2023-03-11T03:57:16;76720.22;;;-142.11;100.00
14800;BME280;7491;57.750;11.970;2023-03-11T03:59:43;76724.31;;;-142.11;100.00
14800;BME280;7491;57.750;11.970;2023-03-11T04:02:10;76750.81;;;-142.11;100.00
14800;BME280;7491;57.750;11.970;2023-03-11T04:04:36;76773.22;;;-142.11;100.00
14800;BME280;7491;57.750;11.970;2023-03-11T04:07:03;76803.81;;;-142.11;100.00
14800;BME280;7491;57.750;11.970;2023-03-11T04:09:30;76818.09;;;-142.11;100.00
14800;BME280;7491;57.750;11.970;2023-03-11T04:11:59;76826.25;;;-142.11;100.00
14800;BME280;7491;57.750;11.970;2023-03-11T04:14:25;76844.59;;;-142.11;100.00
14800;BME280;7491;57.750;11.970;2023-03-11T04:16:52;76856.81;;;-142.11;100.00
14800;BME280;7491;57.750;11.970;2023-03-11T04:19:19;76873.13;;;-142.11;100.00
14800;BME280;7491;57.750;11.970;2023-03-11T04:21:46;76879.25;;;-142.11;100.00
14800;BME280;7491;57.750;11.970;2023-03-11T04:24:12;76889.44;;;-142.11;100.00
14800;BME280;7491;57.750;11.970;2023-03-11T04:26:39;76901.69;;;-142.11;100.00
14800;BME280;7491;57.750;11.970;2023-03-11T04:29:07;76907.81;;;-142.11;100.00
14800;BME280;7491;57.750;11.970;2023-03-11T04:31:34;76918.00;;;-142.11;100.00
14800;BME280;7491;57.750;11.970;2023-03-11T04:34:00;76924.13;;;-142.11;100.00
14800;BME280;7491;57.750;11.970;2023-03-11T04:36:28;76938.38;;;-142.11;100.00
14800;BME280;7491;57.750;11.970;2023-03-11T04:38:55;76973.03;;;-142.11;100.00
14800;BME280;7491;57.750;11.970;2023-03-11T04:41:22;76991.41;;;-142.11;100.00
14800;BME280;7491;57.750;11.970;2023-03-11T04:43:49;76999.56;;;-142.11;100.00
14800;BME280;7491;57.750;11.970;2023-03-11T04:46:17;77026.06;;;-142.11;100.00
14800;BME280;7491;57.750;11.970;2023-03-11T04:48:44;77032.19;;;-142.11;100.00
14800;BME280;7491;57.750;11.970;2023-03-11T04:51:10;77044.41;;;-142.11;100.00
14800;BME280;7491;57.750;11.970;2023-03-11T04:53:37;77050.53;;;-142.11;100.00
14800;BME280;7491;57.750;11.970;2023-03-11T04:56:04;77054.59;;;-142.11;100.00
14800;BME280;7491;57.750;11.970;2023-03-11T04:58:31;77058.69;;;-142.11;100.00
14800;BME280;7491;57.750;11.970;2023-03-11T05:00:57;77058.69;;;-142.11;100.00
14800;BME280;7491;57.750;11.970;2023-03-11T05:03:25;77060.72;;;-142.11;100.00
14800;BME280;7491;57.750;11.970;2023-03-11T05:05:52;77070.91;;;-142.11;100.00
14800;BME280;7491;57.750;11.970;2023-03-11T05:08:21;77070.91;;;-142.11;100.00
14800;BME280;7491;57.750;11.970;2023-03-11T05:10:48;77087.22;;;-142.11;100.00
14800;BME280;7491;57.750;11.970;2023-03-11T05:13:17;77099.47;;;-142.11;100.00
14800;BME280;7491;57.750;11.970;2023-03-11T05:15:43;77123.94;;;-142.11;100.00
14800;BME280;7491;57.750;11.970;2023-03-11T05:18:10;77132.09;;;-142.11;100.00
14800;BME280;7491;57.750;11.970;2023-03-11T05:20:38;77150.44;;;-142.11;100.00
14800;BME280;7491;57.750;11.970;2023-03-11T05:23:05;77158.59;;;-142.11;100.00
14800;BME280;7491;57.750;11.970;2023-03-11T05:25:32;77166.75;;;-142.11;100.00
14800;BME280;7491;57.750;11.970;2023-03-11T05:27:59;77166.75;;;-142.11;100.00
14800;BME280;7491;57.750;11.970;2023-03-11T05:30:26;77146.38;;;-142.11;100.00
14800;BME280;7491;57.750;11.970;2023-03-11T05:32:53;77150.44;;;-142.11;100.00
14800;BME280;7491;57.750;11.970;2023-03-11T05:35:20;77166.75;;;-142.11;100.00
14800;BME280;7491;57.750;11.970;2023-03-11T05:37:48;77164.72;;;-142.11;100.00
14800;BME280;7491;57.750;11.970;2023-03-11T05:40:16;77156.56;;;-142.11;100.00
14800;BME280;7491;57.750;11.970;2023-03-11T05:42:42;77166.75;;;-142.11;100.00
14800;BME280;7491;57.750;11.970;2023-03-11T05:45:09;77183.06;;;-142.11;100.00
14800;BME280;7491;57.750;11.970;2023-03-11T05:47:36;77183.06;;;-142.11;100.00
14800;BME280;7491;57.750;11.970;2023-03-11T05:50:04;77195.31;;;-142.11;100.00
14800;BME280;7491;57.750;11.970;2023-03-11T05:52:30;77185.09;;;-142.11;100.00
14800;BME280;7491;57.750;11.970;2023-03-11T05:54:59;77213.66;;;-142.11;100.00
14800;BME280;7491;57.750;11.970;2023-03-11T05:57:26;77209.56;;;-142.11;100.00
14800;BME280;7491;57.750;11.970;2023-03-11T05:59:53;77213.66;;;-142.11;100.00
14800;BME280;7491;57.750;11.970;2023-03-11T06:02:20;77227.94;;;-142.11;100.00
14800;BME280;7491;57.750;11.970;2023-03-11T06:04:47;77236.09;;;-142.11;100.00
14800;BME280;7491;57.750;11.970;2023-03-11T06:07:14;77234.03;;;-142.11;100.00
14800;BME280;7491;57.750;11.970;2023-03-11T06:09:41;77240.16;;;-142.11;100.00
14800;BME280;7491;57.750;11.970;2023-03-11T06:12:09;77213.66;;;-142.11;100.00
14800;BME280;7491;57.750;11.970;2023-03-11T06:14:36;77062.75;;;-142.11;100.00
14800;BME280;7491;57.750;11.970;2023-03-11T06:17:03;76795.66;;;-142.11;100.00
14800;BME280;7491;57.750;11.970;2023-03-11T06:19:29;76703.91;;;-142.11;100.00
14800;BME280;7491;57.750;11.970;2023-03-11T06:21:56;76703.91;;;-142.11;100.00
14800;BME280;7491;57.750;11.970;2023-03-11T06:24:23;76787.50;;;-142.11;100.00
14800;BME280;7491;57.750;11.970;2023-03-11T06:26:50;76918.00;;;-142.11;100.00
14800;BME280;7491;57.750;11.970;2023-03-11T06:29:18;76985.28;;;-142.11;100.00
14800;BME280;7491;57.750;11.970;2023-03-11T06:31:46;77048.50;;;-142.11;100.00
14800;BME280;7491;57.750;11.970;2023-03-11T06:34:12;77066.84;;;-142.11;100.00
14800;BME280;7491;57.750;11.970;2023-03-11T06:36:39;77019.94;;;-142.11;100.00
14800;BME280;7491;57.750;11.970;2023-03-11T06:39:06;76820.13;;;-142.11;100.00
14800;BME280;7491;57.750;11.970;2023-03-11T06:41:33;76504.13;;;-142.11;100.00
14800;BME280;7491;57.750;11.970;2023-03-11T06:44:00;76408.28;;;-142.11;100.00
14800;BME280;7491;57.750;11.970;2023-03-11T06:46:29;76530.63;;;-142.11;100.00
14800;BME280;7491;57.750;11.970;2023-03-11T06:48:56;76722.25;;;-142.11;100.00
14800;BME280;7491;57.750;11.970;2023-03-11T06:51:23;76828.28;;;-142.11;100.00
14800;BME280;7491;57.750;11.970;2023-03-11T06:53:51;76893.53;;;-142.11;100.00
14800;BME280;7491;57.750;11.970;2023-03-11T06:56:18;76928.19;;;-142.11;100.00
14800;BME280;7491;57.750;11.970;2023-03-11T06:58:45;76985.28;;;-142.11;100.00
14800;BME280;7491;57.750;11.970;2023-03-11T07:01:13;76983.25;;;-142.11;100.00
14800;BME280;7491;57.750;11.970;2023-03-11T07:03:42;76995.47;;;-142.11;100.00
14800;BME280;7491;57.750;11.970;2023-03-11T07:06:11;77009.75;;;-142.11;100.00
14800;BME280;7491;57.750;11.970;2023-03-11T07:08:38;77030.13;;;-142.11;100.00
14800;BME280;7491;57.750;11.970;2023-03-11T07:11:06;77042.38;;;-142.11;100.00
14800;BME280;7491;57.750;11.970;2023-03-11T07:13:34;77040.34;;;-142.11;100.00
14800;BME280;7491;57.750;11.970;2023-03-11T07:16:06;77036.25;;;-142.11;100.00
14800;BME280;7491;57.750;11.970;2023-03-11T07:18:34;77028.09;;;-142.11;100.00
14800;BME280;7491;57.750;11.970;2023-03-11T07:21:03;77011.78;;;-142.11;100.00
14800;BME280;7491;57.750;11.970;2023-03-11T07:23:30;77001.59;;;-142.11;100.00
14800;BME280;7491;57.750;11.970;2023-03-11T07:25:57;76987.31;;;-142.11;100.00
14800;BME280;7491;57.750;11.970;2023-03-11T07:28:25;76979.16;;;-142.11;100.00
14800;BME280;7491;57.750;11.970;2023-03-11T07:30:53;76971.00;;;-142.11;100.00
14800;BME280;7491;57.750;11.970;2023-03-11T07:33:20;76962.84;;;-142.11;100.00
14800;BME280;7491;57.750;11.970;2023-03-11T07:35:48;76940.44;;;-142.11;100.00
14800;BME280;7491;57.750;11.970;2023-03-11T07:38:17;76934.31;;;-142.11;100.00
14800;BME280;7491;57.750;11.970;2023-03-11T07:40:44;76928.19;;;-142.11;100.00
14800;BME280;7491;57.750;11.970;2023-03-11T07:43:10;76909.84;;;-142.11;100.00
14800;BME280;7491;57.750;11.970;2023-03-11T07:45:37;76897.59;;;-142.11;100.00
14800;BME280;7491;57.750;11.970;2023-03-11T07:48:04;76875.19;;;-142.11;100.00
14800;BME280;7491;57.750;11.970;2023-03-11T07:50:31;76862.94;;;-142.11;100.00
14800;BME280;7491;57.750;11.970;2023-03-11T07:52:57;76840.53;;;-142.11;100.00
14800;BME280;7491;57.750;11.970;2023-03-11T07:55:25;76826.25;;;-142.11;100.00
14800;BME280;7491;57.750;11.970;2023-03-11T07:57:52;76822.16;;;-142.11;100.00
14800;BME280;7491;57.750;11.970;2023-03-11T08:00:19;76799.75;;;-142.11;100.00
14800;BME280;7491;57.750;11.970;2023-03-11T08:02:46;76783.44;;;-142.11;100.00
14800;BME280;7491;57.750;11.970;2023-03-11T08:05:13;76783.44;;;-142.11;100.00
14800;BME280;7491;57.750;11.970;2023-03-11T08:07:40;76793.63;;;-142.11;100.00
14800;BME280;7491;57.750;11.970;2023-03-11T08:10:07;76785.47;;;-142.11;100.00
14800;BME280;7491;57.750;11.970;2023-03-11T08:12:35;76765.06;;;-142.11;100.00
14800;BME280;7491;57.750;11.970;2023-03-11T08:15:02;76765.06;;;-142.11;100.00
14800;BME280;7491;57.750;11.970;2023-03-11T08:17:29;76742.66;;;-142.11;100.00
14800;BME280;7491;57.750;11.970;2023-03-11T08:19:56;76732.47;;;-142.11;100.00
14800;BME280;7491;57.750;11.970;2023-03-11T08:22:23;76716.16;;;-142.11;100.00
14800;BME280;7491;57.750;11.970;2023-03-11T08:24:50;76701.88;;;-142.11;100.00
14800;BME280;7491;57.750;11.970;2023-03-11T08:27:17;76712.06;;;-142.11;100.00
14800;BME280;7491;57.750;11.970;2023-03-11T08:29:45;76695.75;;;-142.11;100.00
14800;BME280;7491;57.750;11.970;2023-03-11T08:32:12;76673.31;;;-142.11;100.00
14800;BME280;7491;57.750;11.970;2023-03-11T08:34:39;76652.94;;;-142.11;100.00
14800;BME280;7491;57.750;11.970;2023-03-11T08:37:05;76644.78;;;-142.11;100.00
14800;BME280;7491;57.750;11.970;2023-03-11T08:39:32;76638.66;;;-142.11;100.00
14800;BME280;7491;57.750;11.970;2023-03-11T08:41:59;76616.25;;;-142.11;100.00
14800;BME280;7491;57.750;11.970;2023-03-11T08:44:27;76597.91;;;-142.11;100.00
14800;BME280;7491;57.750;11.970;2023-03-11T08:46:55;76601.97;;;-142.11;100.00
14800;BME280;7491;57.750;11.970;2023-03-11T08:49:22;76573.44;;;-142.11;100.00
14800;BME280;7491;57.750;11.970;2023-03-11T08:51:49;76553.03;;;-142.11;100.00
14800;BME280;7491;57.750;11.970;2023-03-11T08:54:16;76538.78;;;-142.11;100.00
14800;BME280;7491;57.750;11.970;2023-03-11T08:56:42;76530.63;;;-142.11;100.00
14800;BME280;7491;57.750;11.970;2023-03-11T08:59:09;76514.31;;;-142.11;100.00
14800;BME280;7491;57.750;11.970;2023-03-11T09:01:36;76512.28;;;-142.11;100.00
14800;BME280;7491;57.750;11.970;2023-03-11T09:04:04;76495.97;;;-142.11;100.00
14800;BME280;7491;57.750;11.970;2023-03-11T09:06:31;76485.75;;;-142.11;100.00
14800;BME280;7491;57.750;11.970;2023-03-11T09:08:57;76493.91;;;-142.11;100.00
14800;BME280;7491;57.750;11.970;2023-03-11T09:11:24;76483.72;;;-142.11;100.00
14800;BME280;7491;57.750;11.970;2023-03-11T09:13:51;76459.25;;;-142.11;100.00
14800;BME280;7491;57.750;11.970;2023-03-11T09:16:20;76449.06;;;-142.11;100.00
14800;BME280;7491;57.750;11.970;2023-03-11T09:18:48;76438.88;;;-142.11;100.00
14800;BME280;7491;57.750;11.970;2023-03-11T09:21:16;76438.88;;;-142.11;100.00
14800;BME280;7491;57.750;11.970;2023-03-11T09:23:43;76440.91;;;-142.11;100.00
14800;BME280;7491;57.750;11.970;2023-03-11T09:26:10;76420.53;;;-142.11;100.00
14800;BME280;7491;57.750;11.970;2023-03-11T09:28:37;76410.34;;;-142.11;100.00
14800;BME280;7491;57.750;11.970;2023-03-11T09:31:03;76402.19;;;-142.11;100.00
14800;BME280;7491;57.750;11.970;2023-03-11T09:33:30;76377.72;;;-142.11;100.00
14800;BME280;7491;57.750;11.970;2023-03-11T09:35:57;76351.22;;;-142.11;100.00
14800;BME280;7491;57.750;11.970;2023-03-11T09:38:26;76347.13;;;-142.11;100.00
14800;BME280;7491;57.750;11.970;2023-03-11T09:40:58;76326.75;;;-142.11;100.00
14800;BME280;7491;57.750;11.970;2023-03-11T09:43:39;76310.44;;;-142.11;100.00
14800;BME280;7491;57.750;11.970;2023-03-11T09:49:12;76296.16;;;-142.11;100.00
14800;BME280;7491;57.750;11.970;2023-03-11T09:51:43;76283.94;;;-142.11;100.00
14800;BME280;7491;57.750;11.970;2023-03-11T09:54:13;76257.44;;;-142.11;100.00
14800;BME280;7491;57.750;11.970;2023-03-11T09:56:41;76261.50;;;-142.11;100.00
14800;BME280;7491;57.750;11.970;2023-03-11T09:59:14;76237.06;;;-142.11;100.00
14800;BME280;7491;57.750;11.970;2023-03-11T10:01:44;76243.16;;;-142.11;100.00
14800;BME280;7491;57.750;11.970;2023-03-11T10:04:16;76220.75;;;-142.11;100.00
14800;BME280;7491;57.750;11.970;2023-03-11T10:06:46;76220.75;;;-142.11;100.00
14800;BME280;7491;57.750;11.970;2023-03-11T10:09:29;76210.56;;;-142.11;100.00
14800;BME280;7491;57.750;11.970;2023-03-11T10:12:05;76167.75;;;-142.11;100.00
14800;BME280;7491;57.750;11.970;2023-03-11T10:14:44;76159.59;;;-142.11;100.00
14800;BME280;7491;57.750;11.970;2023-03-11T10:17:20;76141.25;;;-142.11;100.00
14800;BME280;7491;57.750;11.970;2023-03-11T10:19:53;76159.59;;;-142.11;100.00
14800;BME280;7491;57.750;11.970;2023-03-11T10:22:27;76126.97;;;-142.11;100.00
14800;BME280;7491;57.750;11.970;2023-03-11T10:25:03;76114.75;;;-142.11;100.00
14800;BME280;7491;57.750;11.970;2023-03-11T10:27:36;76122.91;;;-142.11;100.00
14800;BME280;7491;57.750;11.970;2023-03-11T10:30:22;76094.34;;;-142.11;100.00
14800;BME280;7491;57.750;11.970;2023-03-11T10:32:55;76108.63;;;-142.11;100.00
14800;BME280;7491;57.750;11.970;2023-03-11T10:35:32;76094.34;;;-142.11;100.00
14800;BME280;7491;57.750;11.970;2023-03-11T10:38:04;76086.19;;;-142.11;100.00
14800;BME280;7491;57.750;11.970;2023-03-11T10:40:36;76061.75;;;-142.11;100.00
14800;BME280;7491;57.750;11.970;2023-03-11T10:43:09;76063.78;;;-142.11;100.00
14800;BME280;7491;57.750;11.970;2023-03-11T10:45:39;76035.25;;;-142.11;100.00
14800;BME280;7491;57.750;11.970;2023-03-11T10:48:10;76045.44;;;-142.11;100.00
14800;BME280;7491;57.750;11.970;2023-03-11T10:50:44;76047.47;;;-142.11;100.00
14800;BME280;7491;57.750;11.970;2023-03-11T10:53:14;76049.50;;;-142.11;100.00
14800;BME280;7491;57.750;11.970;2023-03-11T10:55:47;76027.09;;;-142.11;100.00
14800;BME280;7491;57.750;11.970;2023-03-11T10:58:16;76020.97;;;-142.11;100.00
14800;BME280;7491;57.750;11.970;2023-03-11T11:01:14;76010.78;;;-142.11;100.00
14800;BME280;7491;57.750;11.970;2023-03-11T11:03:50;76025.06;;;-142.11;100.00
14800;BME280;7491;57.750;11.970;2023-03-11T11:06:24;76006.72;;;-142.11;100.00
14800;BME280;7491;57.750;11.970;2023-03-11T11:09:11;76002.63;;;-142.11;100.00
14800;BME280;7491;57.750;11.970;2023-03-11T11:11:40;75980.22;;;-142.11;100.00
14800;BME280;7491;57.750;11.970;2023-03-11T11:14:07;75984.28;;;-142.11;100.00
14800;BME280;7491;57.750;11.970;2023-03-11T11:16:35;75986.31;;;-142.11;100.00
14800;BME280;7491;57.750;11.970;2023-03-11T11:19:03;76002.63;;;-142.11;100.00
14800;BME280;7491;57.750;11.970;2023-03-11T11:21:32;75976.13;;;-142.11;100.00
14800;BME280;7491;57.750;11.970;2023-03-11T11:24:05;75955.75;;;-142.11;100.00
14800;BME280;7491;57.750;11.970;2023-03-11T11:26:35;75961.88;;;-142.11;100.00
14800;BME280;7491;57.750;11.970;2023-03-11T11:29:12;75955.75;;;-142.11;100.00
14800;BME280;7491;57.750;11.970;2023-03-11T11:31:40;75949.63;;;-142.11;100.00
14800;BME280;7491;57.750;11.970;2023-03-11T11:34:26;75945.56;;;-142.11;100.00
14800;BME280;7491;57.750;11.970;2023-03-11T11:36:54;75914.97;;;-142.11;100.00
14800;BME280;7491;57.750;11.970;2023-03-11T11:39:22;75882.38;;;-142.11;100.00
14800;BME280;7491;57.750;11.970;2023-03-11T11:41:51;75859.94;;;-142.11;100.00
14800;BME280;7491;57.750;11.970;2023-03-11T11:44:21;75841.59;;;-142.11;100.00
14800;BME280;7491;57.750;11.970;2023-03-11T11:46:52;75839.56;;;-142.11;100.00
14800;BME280;7491;57.750;11.970;2023-03-11T11:49:21;75880.31;;;-142.11;100.00
14800;BME280;7491;57.750;11.970;2023-03-11T11:51:54;75870.13;;;-142.11;100.00
14800;BME280;7491;57.750;11.970;2023-03-11T11:54:27;75833.44;;;-142.11;100.00
14800;BME280;7491;57.750;11.970;2023-03-11T11:56:57;75806.94;;;-142.11;100.00
14800;BME280;7491;57.750;11.970;2023-03-11T11:59:26;75790.63;;;-142.11;100.00
14800;BME280;7491;57.750;11.970;2023-03-11T12:02:06;75798.78;;;-142.11;100.00
14800;BME280;7491;57.750;11.970;2023-03-11T12:04:51;75800.84;;;-142.11;100.00
14800;BME280;7491;57.750;11.970;2023-03-11T12:07:32;75782.50;;;-142.11;100.00
14800;BME280;7491;57.750;11.970;2023-03-11T12:10:19;75758.03;;;-142.11;100.00
14800;BME280;7491;57.750;11.970;2023-03-11T12:12:54;75786.56;;;-142.11;100.00
14800;BME280;7491;57.750;11.970;2023-03-11T12:15:34;75745.81;;;-142.11;100.00
14800;BME280;7491;57.750;11.970;2023-03-11T12:18:05;75729.50;;;-142.11;100.00
14800;BME280;7491;57.750;11.970;2023-03-11T12:20:38;75713.19;;;-142.11;100.00
14800;BME280;7491;57.750;11.970;2023-03-11T12:23:16;75688.72;;;-142.11;100.00
14800;BME280;7491;57.750;11.970;2023-03-11T12:25:52;75721.34;;;-142.11;100.00
14800;BME280;7491;57.750;11.970;2023-03-11T12:28:23;75700.97;;;-142.11;100.00
14800;BME280;7491;57.750;11.970;2023-03-11T12:30:58;75735.59;;;-142.11;100.00
14800;BME280;7491;57.750;11.970;2023-03-11T12:33:32;75739.69;;;-142.11;100.00
14800;BME280;7491;57.750;11.970;2023-03-11T12:36:00;75776.38;;;-142.11;100.00
14800;BME280;7491;57.750;11.970;2023-03-11T12:38:31;75778.41;;;-142.11;100.00
14800;BME280;7491;57.750;11.970;2023-03-11T12:41:05;75768.22;;;-142.11;100.00
14800;BME280;7491;57.750;11.970;2023-03-11T12:49:37;75802.88;;;-142.11;100.00
14800;BME280;7491;57.750;11.970;2023-03-11T12:52:17;75782.50;;;-142.11;100.00